sensor_id;sensor_type;location;lat;lon;timestamp;pressure;altitude;pressure_sealevel;temperature;humidity
75747;BME280;64363;52.198;21.020;2022-10-17T00:00:23;101303.06;;;13.94;85.33
75747;BME280;64363;52.198;21.020;2022-10-17T00:03:08;101306.56;;;13.96;85.07
75747;BME280;64363;52.198;21.020;2022-10-17T00:05:41;101311.94;;;13.96;85.26
75747;BME280;64363;52.198;21.020;2022-10-17T00:08:08;101311.22;;;13.91;85.10
75747;BME280;64363;52.198;21.020;2022-10-17T00:10:34;101307.75;;;13.88;85.34
75747;BME280;64363;52.198;21.020;2022-10-17T00:13:01;101315.63;;;13.92;85.12
75747;BME280;64363;52.198;21.020;2022-10-17T00:15:27;101311.09;;;13.96;85.18
75747;BME280;64363;52.198;21.020;2022-10-17T00:17:52;101314.78;;;13.92;85.29
75747;BME280;64363;52.198;21.020;2022-10-17T00:20:18;101304.19;;;13.87;85.14
75747;BME280;64363;52.198;21.020;2022-10-17T00:22:44;101302.47;;;13.85;85.60
75747;BME280;64363;52.198;21.020;2022-10-17T00:25:10;101302.59;;;13.80;85.89
75747;BME280;64363;52.198;21.020;2022-10-17T00:27:37;101301.78;;;13.78;85.71
75747;BME280;64363;52.198;21.020;2022-10-17T00:30:04;101309.94;;;13.75;85.39
75747;BME280;64363;52.198;21.020;2022-10-17T00:32:30;101312.72;;;13.71;85.62
75747;BME280;64363;52.198;21.020;2022-10-17T00:34:57;101306.47;;;13.72;85.93
75747;BME280;64363;52.198;21.020;2022-10-17T00:37:22;101306.50;;;13.70;85.60
75747;BME280;64363;52.198;21.020;2022-10-17T00:39:48;101313.75;;;13.67;85.21
75747;BME280;64363;52.198;21.020;2022-10-17T00:42:14;101310.31;;;13.62;85.67
75747;BME280;64363;52.198;21.020;2022-10-17T00:47:10;101313.13;;;13.57;85.71
75747;BME280;64363;52.198;21.020;2022-10-17T00:49:39;101327.50;;;13.54;86.38
75747;BME280;64363;52.198;21.020;2022-10-17T00:52:07;101322.16;;;13.54;86.60
75747;BME280;64363;52.198;21.020;2022-10-17T00:54:38;101324.84;;;13.53;86.54
75747;BME280;64363;52.198;21.020;2022-10-17T00:57:05;101324.03;;;13.51;85.96
75747;BME280;64363;52.198;21.020;2022-10-17T00:59:33;101320.50;;;13.49;85.93
75747;BME280;64363;52.198;21.020;2022-10-17T01:02:13;101322.38;;;13.47;85.91
75747;BME280;64363;52.198;21.020;2022-10-17T01:04:42;101311.75;;;13.44;85.90
75747;BME280;64363;52.198;21.020;2022-10-17T01:07:09;101319.91;;;13.39;85.97
75747;BME280;64363;52.198;21.020;2022-10-17T01:09:35;101317.34;;;13.35;86.44
75747;BME280;64363;52.198;21.020;2022-10-17T01:23:21;101334.34;;;13.34;86.14
75747;BME280;64363;52.198;21.020;2022-10-17T01:31:24;101326.66;;;13.52;85.59
75747;BME280;64363;52.198;21.020;2022-10-17T01:34:02;101321.28;;;13.52;85.51
75747;BME280;64363;52.198;21.020;2022-10-17T01:36:47;101313.31;;;13.51;85.79
75747;BME280;64363;52.198;21.020;2022-10-17T01:39:52;101308.13;;;13.45;85.89
75747;BME280;64363;52.198;21.020;2022-10-17T01:42:29;101315.34;;;13.43;86.05
75747;BME280;64363;52.198;21.020;2022-10-17T01:45:00;101314.56;;;13.39;86.19
75747;BME280;64363;52.198;21.020;2022-10-17T01:47:29;101319.91;;;13.39;86.22
75747;BME280;64363;52.198;21.020;2022-10-17T01:50:00;101326.16;;;13.40;86.29
75747;BME280;64363;52.198;21.020;2022-10-17T01:52:32;101329.66;;;13.42;85.93
75747;BME280;64363;52.198;21.020;2022-10-17T01:55:09;101324.38;;;13.39;86.20
75747;BME280;64363;52.198;21.020;2022-10-17T01:57:39;101329.75;;;13.39;86.08
75747;BME280;64363;52.198;21.020;2022-10-17T02:00:11;101326.31;;;13.34;86.02
75747;BME280;64363;52.198;21.020;2022-10-17T02:02:40;101327.34;;;13.28;86.12
75747;BME280;64363;52.198;21.020;2022-10-17T02:05:08;101325.75;;;13.21;86.27
75747;BME280;64363;52.198;21.020;2022-10-17T02:07:34;101320.50;;;13.17;86.78
75747;BME280;64363;52.198;21.020;2022-10-17T02:10:01;101316.16;;;13.12;86.95
75747;BME280;64363;52.198;21.020;2022-10-17T02:12:48;101323.44;;;13.07;86.79
75747;BME280;64363;52.198;21.020;2022-10-17T02:15:53;101320.00;;;13.02;87.11
75747;BME280;64363;52.198;21.020;2022-10-17T02:23:54;101337.19;;;12.92;87.14
75747;BME280;64363;52.198;21.020;2022-10-17T02:29:13;101332.00;;;12.88;87.43
75747;BME280;64363;52.198;21.020;2022-10-17T02:31:47;101340.03;;;12.86;87.31
75747;BME280;64363;52.198;21.020;2022-10-17T02:34:23;101341.88;;;12.84;87.21
75747;BME280;64363;52.198;21.020;2022-10-17T02:36:57;101344.63;;;12.81;87.13
75747;BME280;64363;52.198;21.020;2022-10-17T02:39:26;101360.78;;;12.77;87.43
75747;BME280;64363;52.198;21.020;2022-10-17T02:41:54;101359.13;;;12.73;87.53
75747;BME280;64363;52.198;21.020;2022-10-17T02:44:22;101363.63;;;12.71;87.37
75747;BME280;64363;52.198;21.020;2022-10-17T02:46:54;101367.34;;;12.65;88.15
75747;BME280;64363;52.198;21.020;2022-10-17T02:49:30;101365.56;;;12.64;88.71
75747;BME280;64363;52.198;21.020;2022-10-17T02:57:39;101384.47;;;12.56;87.96
75747;BME280;64363;52.198;21.020;2022-10-17T03:00:09;101379.09;;;12.58;87.30
75747;BME280;64363;52.198;21.020;2022-10-17T03:02:50;101380.00;;;12.57;87.88
75747;BME280;64363;52.198;21.020;2022-10-17T03:05:20;101385.41;;;12.55;88.08
75747;BME280;64363;52.198;21.020;2022-10-17T03:07:46;101395.25;;;12.55;87.44
75747;BME280;64363;52.198;21.020;2022-10-17T03:10:12;101397.97;;;12.52;87.97
75747;BME280;64363;52.198;21.020;2022-10-17T03:12:38;101405.13;;;12.51;87.81
75747;BME280;64363;52.198;21.020;2022-10-17T03:15:04;101415.84;;;12.51;87.56
75747;BME280;64363;52.198;21.020;2022-10-17T03:17:30;101422.00;;;12.55;87.81
75747;BME280;64363;52.198;21.020;2022-10-17T03:19:56;101411.19;;;12.59;87.33
75747;BME280;64363;52.198;21.020;2022-10-17T03:22:22;101412.00;;;12.63;87.15
75747;BME280;64363;52.198;21.020;2022-10-17T03:24:48;101405.66;;;12.67;86.94
75747;BME280;64363;52.198;21.020;2022-10-17T03:27:13;101396.75;;;12.66;86.82
75747;BME280;64363;52.198;21.020;2022-10-17T03:29:39;101408.28;;;12.68;87.11
75747;BME280;64363;52.198;21.020;2022-10-17T03:32:05;101401.13;;;12.69;87.01
75747;BME280;64363;52.198;21.020;2022-10-17T03:34:31;101399.25;;;12.73;86.75
75747;BME280;64363;52.198;21.020;2022-10-17T03:36:56;101401.03;;;12.72;87.05
75747;BME280;64363;52.198;21.020;2022-10-17T03:39:22;101410.00;;;12.71;86.98
75747;BME280;64363;52.198;21.020;2022-10-17T03:41:48;101411.75;;;12.72;87.13
75747;BME280;64363;52.198;21.020;2022-10-17T03:44:14;101414.44;;;12.72;87.28
75747;BME280;64363;52.198;21.020;2022-10-17T03:46:40;101416.19;;;12.73;87.33
75747;BME280;64363;52.198;21.020;2022-10-17T03:49:08;101405.47;;;12.75;87.20
75747;BME280;64363;52.198;21.020;2022-10-17T03:51:35;101404.41;;;12.80;86.90
75747;BME280;64363;52.198;21.020;2022-10-17T03:54:01;101399.00;;;12.83;86.87
75747;BME280;64363;52.198;21.020;2022-10-17T03:56:27;101402.50;;;12.85;86.87
75747;BME280;64363;52.198;21.020;2022-10-17T03:58:54;101401.53;;;12.89;86.74
75747;BME280;64363;52.198;21.020;2022-10-17T04:01:20;101408.66;;;12.90;87.37
75747;BME280;64363;52.198;21.020;2022-10-17T04:03:51;101422.84;;;12.92;87.04
75747;BME280;64363;52.198;21.020;2022-10-17T04:06:18;101420.19;;;12.92;87.50
75747;BME280;64363;52.198;21.020;2022-10-17T04:08:44;101412.22;;;12.89;87.01
75747;BME280;64363;52.198;21.020;2022-10-17T04:11:13;101418.56;;;12.85;87.17
75747;BME280;64363;52.198;21.020;2022-10-17T04:13:39;101411.44;;;12.84;87.20
75747;BME280;64363;52.198;21.020;2022-10-17T04:16:09;101420.38;;;12.85;87.27
75747;BME280;64363;52.198;21.020;2022-10-17T04:18:36;101421.34;;;12.82;87.20
75747;BME280;64363;52.198;21.020;2022-10-17T04:21:03;101426.78;;;12.79;87.36
75747;BME280;64363;52.198;21.020;2022-10-17T04:23:29;101430.44;;;12.75;87.36
75747;BME280;64363;52.198;21.020;2022-10-17T04:25:59;101439.41;;;12.73;87.30
75747;BME280;64363;52.198;21.020;2022-10-17T04:28:26;101432.31;;;12.70;87.62
75747;BME280;64363;52.198;21.020;2022-10-17T04:31:02;101438.66;;;12.66;87.50
75747;BME280;64363;52.198;21.020;2022-10-17T04:33:29;101434.31;;;12.62;87.13
75747;BME280;64363;52.198;21.020;2022-10-17T04:36:08;101432.63;;;12.56;87.54
75747;BME280;64363;52.198;21.020;2022-10-17T04:38:34;101431.03;;;12.48;87.45
75747;BME280;64363;52.198;21.020;2022-10-17T04:41:01;101433.78;;;12.45;88.27
75747;BME280;64363;52.198;21.020;2022-10-17T04:43:33;101435.59;;;12.44;87.64
75747;BME280;64363;52.198;21.020;2022-10-17T04:46:00;101434.75;;;12.42;87.88
75747;BME280;64363;52.198;21.020;2022-10-17T04:48:27;101431.19;;;12.42;88.21
75747;BME280;64363;52.198;21.020;2022-10-17T04:51:05;101433.00;;;12.41;87.95
75747;BME280;64363;52.198;21.020;2022-10-17T04:53:32;101437.44;;;12.41;88.10
75747;BME280;64363;52.198;21.020;2022-10-17T04:55:59;101442.81;;;12.41;88.56
75747;BME280;64363;52.198;21.020;2022-10-17T04:58:25;101445.47;;;12.42;88.25
75747;BME280;64363;52.198;21.020;2022-10-17T05:00:50;101443.63;;;12.44;88.10
75747;BME280;64363;52.198;21.020;2022-10-17T05:03:16;101447.97;;;12.50;88.27
75747;BME280;64363;52.198;21.020;2022-10-17T05:05:42;101446.06;;;12.55;87.92
75747;BME280;64363;52.198;21.020;2022-10-17T05:08:08;101453.06;;;12.60;87.96
75747;BME280;64363;52.198;21.020;2022-10-17T05:10:36;101453.88;;;12.64;87.86
75747;BME280;64363;52.198;21.020;2022-10-17T05:13:03;101460.00;;;12.69;87.61
75747;BME280;64363;52.198;21.020;2022-10-17T05:15:29;101469.59;;;12.79;87.95
75747;BME280;64363;52.198;21.020;2022-10-17T05:17:55;101476.56;;;12.85;87.86
75747;BME280;64363;52.198;21.020;2022-10-17T05:20:21;101479.22;;;12.86;87.50
75747;BME280;64363;52.198;21.020;2022-10-17T05:22:47;101482.69;;;12.91;87.71
75747;BME280;64363;52.198;21.020;2022-10-17T05:25:13;101482.59;;;12.94;87.75
75747;BME280;64363;52.198;21.020;2022-10-17T05:27:38;101495.88;;;12.99;87.88
75747;BME280;64363;52.198;21.020;2022-10-17T05:30:05;101475.34;;;12.99;86.86
75747;BME280;64363;52.198;21.020;2022-10-17T05:32:31;101476.34;;;12.95;87.28
75747;BME280;64363;52.198;21.020;2022-10-17T05:34:56;101480.84;;;12.93;87.67
75747;BME280;64363;52.198;21.020;2022-10-17T05:37:22;101488.03;;;12.91;87.10
75747;BME280;64363;52.198;21.020;2022-10-17T05:39:48;101484.44;;;12.92;86.94
75747;BME280;64363;52.198;21.020;2022-10-17T05:42:14;101508.56;;;12.91;86.79
75747;BME280;64363;52.198;21.020;2022-10-17T05:44:39;101516.50;;;12.95;86.78
75747;BME280;64363;52.198;21.020;2022-10-17T05:47:07;101523.53;;;12.99;86.73
75747;BME280;64363;52.198;21.020;2022-10-17T05:49:32;101521.63;;;13.04;86.62
75747;BME280;64363;52.198;21.020;2022-10-17T05:51:58;101526.88;;;13.10;86.67
75747;BME280;64363;52.198;21.020;2022-10-17T05:54:25;101532.16;;;13.13;86.50
75747;BME280;64363;52.198;21.020;2022-10-17T05:56:54;101532.06;;;13.17;86.12
75747;BME280;64363;52.198;21.020;2022-10-17T05:59:20;101530.38;;;13.14;85.98
75747;BME280;64363;52.198;21.020;2022-10-17T06:01:46;101528.66;;;13.11;86.33
75747;BME280;64363;52.198;21.020;2022-10-17T06:04:12;101523.31;;;13.10;86.15
75747;BME280;64363;52.198;21.020;2022-10-17T06:06:39;101521.56;;;13.07;86.61
75747;BME280;64363;52.198;21.020;2022-10-17T06:09:05;101521.63;;;13.04;86.08
75747;BME280;64363;52.198;21.020;2022-10-17T06:11:31;101521.69;;;13.01;86.83
75747;BME280;64363;52.198;21.020;2022-10-17T06:13:56;101527.06;;;13.01;86.98
75747;BME280;64363;52.198;21.020;2022-10-17T06:16:22;101527.06;;;13.01;86.69
75747;BME280;64363;52.198;21.020;2022-10-17T06:18:48;101535.94;;;13.03;86.48
75747;BME280;64363;52.198;21.020;2022-10-17T06:21:22;101543.03;;;13.04;86.46
75747;BME280;64363;52.198;21.020;2022-10-17T06:23:48;101553.75;;;13.04;86.51
75747;BME280;64363;52.198;21.020;2022-10-17T06:26:15;101546.59;;;13.05;86.47
75747;BME280;64363;52.198;21.020;2022-10-17T06:28:40;101540.34;;;13.06;86.25
75747;BME280;64363;52.198;21.020;2022-10-17T06:31:12;101539.38;;;13.08;86.17
75747;BME280;64363;52.198;21.020;2022-10-17T06:33:38;101540.22;;;13.12;86.37
75747;BME280;64363;52.198;21.020;2022-10-17T06:36:05;101541.06;;;13.16;85.91
75747;BME280;64363;52.198;21.020;2022-10-17T06:38:33;101548.94;;;13.20;86.19
75747;BME280;64363;52.198;21.020;2022-10-17T06:41:04;101556.78;;;13.29;85.72
75747;BME280;64363;52.198;21.020;2022-10-17T06:43:34;101561.13;;;13.33;85.71
75747;BME280;64363;52.198;21.020;2022-10-17T06:46:00;101562.81;;;13.39;85.31
75747;BME280;64363;52.198;21.020;2022-10-17T06:48:26;101560.91;;;13.44;85.48
75747;BME280;64363;52.198;21.020;2022-10-17T06:50:52;101561.66;;;13.49;85.35
75747;BME280;64363;52.198;21.020;2022-10-17T06:53:18;101565.00;;;13.57;84.91
75747;BME280;64363;52.198;21.020;2022-10-17T06:55:44;101571.97;;;13.64;85.16
75747;BME280;64363;52.198;21.020;2022-10-17T06:58:10;101576.28;;;13.71;84.92
75747;BME280;64363;52.198;21.020;2022-10-17T07:00:36;101568.97;;;13.76;84.63
75747;BME280;64363;52.198;21.020;2022-10-17T07:03:01;101567.06;;;13.83;84.43
75747;BME280;64363;52.198;21.020;2022-10-17T07:05:27;101574.88;;;13.90;84.11
75747;BME280;64363;52.198;21.020;2022-10-17T07:07:53;101576.47;;;13.97;83.31
75747;BME280;64363;52.198;21.020;2022-10-17T07:10:19;101572.72;;;14.04;83.11
75747;BME280;64363;52.198;21.020;2022-10-17T07:12:45;101576.91;;;14.15;82.79
75747;BME280;64363;52.198;21.020;2022-10-17T07:15:11;101573.81;;;14.30;82.45
75747;BME280;64363;52.198;21.020;2022-10-17T07:17:37;101583.34;;;14.41;82.22
75747;BME280;64363;52.198;21.020;2022-10-17T07:20:04;101580.38;;;14.52;80.95
75747;BME280;64363;52.198;21.020;2022-10-17T07:22:30;101585.56;;;14.58;80.33
75747;BME280;64363;52.198;21.020;2022-10-17T07:24:56;101585.41;;;14.64;80.30
75747;BME280;64363;52.198;21.020;2022-10-17T07:27:21;101580.63;;;14.74;80.16
75747;BME280;64363;52.198;21.020;2022-10-17T07:29:47;101578.69;;;14.79;79.37
75747;BME280;64363;52.198;21.020;2022-10-17T07:32:13;101568.72;;;14.82;79.08
75747;BME280;64363;52.198;21.020;2022-10-17T07:34:39;101573.69;;;14.96;78.53
75747;BME280;64363;52.198;21.020;2022-10-17T07:37:05;101570.84;;;15.00;78.50
75747;BME280;64363;52.198;21.020;2022-10-17T07:39:32;101570.78;;;15.04;77.57
75747;BME280;64363;52.198;21.020;2022-10-17T07:42:00;101575.06;;;15.09;78.03
75747;BME280;64363;52.198;21.020;2022-10-17T07:44:26;101582.06;;;15.15;77.63
75747;BME280;64363;52.198;21.020;2022-10-17T07:46:52;101594.25;;;15.25;77.04
75747;BME280;64363;52.198;21.020;2022-10-17T07:49:17;101598.63;;;15.29;76.75
75747;BME280;64363;52.198;21.020;2022-10-17T07:51:43;101597.41;;;15.39;76.29
75747;BME280;64363;52.198;21.020;2022-10-17T07:54:09;101598.19;;;15.42;76.52
75747;BME280;64363;52.198;21.020;2022-10-17T07:56:35;101587.84;;;15.58;75.44
75747;BME280;64363;52.198;21.020;2022-10-17T07:59:01;101594.09;;;15.59;75.93
75747;BME280;64363;52.198;21.020;2022-10-17T08:01:27;101604.72;;;15.63;75.92
75747;BME280;64363;52.198;21.020;2022-10-17T08:03:53;101602.81;;;15.67;nan
75747;BME280;64363;52.198;21.020;2022-10-17T08:06:19;101598.97;;;15.74;75.21
75747;BME280;64363;52.198;21.020;2022-10-17T08:08:45;101614.59;;;15.89;75.29
75747;BME280;64363;52.198;21.020;2022-10-17T08:11:12;101614.09;;;16.04;73.93
75747;BME280;64363;52.198;21.020;2022-10-17T08:13:39;101621.47;;;16.24;73.34
75747;BME280;64363;52.198;21.020;2022-10-17T08:16:08;101613.13;;;16.31;73.04
75747;BME280;64363;52.198;21.020;2022-10-17T08:18:34;101604.88;;;16.36;73.19
75747;BME280;64363;52.198;21.020;2022-10-17T08:21:02;101603.84;;;16.40;73.38
75747;BME280;64363;52.198;21.020;2022-10-17T08:23:31;101613.56;;;16.44;72.83
75747;BME280;64363;52.198;21.020;2022-10-17T08:26:01;101608.94;;;16.48;72.53
75747;BME280;64363;52.198;21.020;2022-10-17T08:28:28;101607.81;;;16.53;72.95
75747;BME280;64363;52.198;21.020;2022-10-17T08:31:01;101608.38;;;16.64;72.07
75747;BME280;64363;52.198;21.020;2022-10-17T08:33:27;101611.38;;;16.80;72.07
75747;BME280;64363;52.198;21.020;2022-10-17T08:35:53;101610.91;;;16.92;71.00
75747;BME280;64363;52.198;21.020;2022-10-17T08:38:19;101607.19;;;16.95;70.80
75747;BME280;64363;52.198;21.020;2022-10-17T08:40:47;101611.38;;;17.03;71.47
75747;BME280;64363;52.198;21.020;2022-10-17T08:43:17;101609.56;;;17.04;70.91
75747;BME280;64363;52.198;21.020;2022-10-17T08:45:51;101602.53;;;17.00;70.84
75747;BME280;64363;52.198;21.020;2022-10-17T08:48:23;101601.63;;;16.99;71.42
75747;BME280;64363;52.198;21.020;2022-10-17T08:50:51;101600.75;;;16.99;71.04
75747;BME280;64363;52.198;21.020;2022-10-17T08:53:20;101590.69;;;17.04;71.92
75747;BME280;64363;52.198;21.020;2022-10-17T08:55:49;101596.47;;;17.16;70.68
75747;BME280;64363;52.198;21.020;2022-10-17T08:58:24;101600.06;;;17.17;70.40
75747;BME280;64363;52.198;21.020;2022-10-17T09:07:38;101596.19;;;17.46;70.26
75747;BME280;64363;52.198;21.020;2022-10-17T09:10:51;101597.75;;;17.51;69.52
75747;BME280;64363;52.198;21.020;2022-10-17T09:16:20;101599.34;;;17.57;69.60
75747;BME280;64363;52.198;21.020;2022-10-17T09:19:11;101597.84;;;17.71;68.80
75747;BME280;64363;52.198;21.020;2022-10-17T09:21:48;101602.31;;;17.72;68.58
75747;BME280;64363;52.198;21.020;2022-10-17T09:24:23;101599.47;;;17.75;68.79
75747;BME280;64363;52.198;21.020;2022-10-17T09:26:50;101600.66;;;17.90;68.98
75747;BME280;64363;52.198;21.020;2022-10-17T09:29:21;101592.91;;;18.03;67.05
75747;BME280;64363;52.198;21.020;2022-10-17T09:31:55;101594.34;;;18.11;67.49
75747;BME280;64363;52.198;21.020;2022-10-17T09:34:24;101591.06;;;18.25;67.81
75747;BME280;64363;52.198;21.020;2022-10-17T09:36:51;101585.56;;;18.27;66.56
75747;BME280;64363;52.198;21.020;2022-10-17T09:39:21;101582.50;;;18.34;66.91
75747;BME280;64363;52.198;21.020;2022-10-17T09:41:55;101587.53;;;18.43;65.95
75747;BME280;64363;52.198;21.020;2022-10-17T09:44:32;101585.34;;;18.51;65.93
75747;BME280;64363;52.198;21.020;2022-10-17T09:49:48;101587.81;;;18.96;64.07
75747;BME280;64363;52.198;21.020;2022-10-17T09:54:49;101583.78;;;19.61;61.25
75747;BME280;64363;52.198;21.020;2022-10-17T09:57:17;101572.75;;;20.00;60.27
75747;BME280;64363;52.198;21.020;2022-10-17T09:59:46;101572.31;;;20.59;58.88
75747;BME280;64363;52.198;21.020;2022-10-17T10:04:59;101564.66;;;21.63;54.95
75747;BME280;64363;52.198;21.020;2022-10-17T10:07:28;101561.84;;;21.64;55.19
75747;BME280;64363;52.198;21.020;2022-10-17T10:09:55;101562.41;;;21.39;54.92
75747;BME280;64363;52.198;21.020;2022-10-17T10:12:27;101558.00;;;20.90;55.86
75747;BME280;64363;52.198;21.020;2022-10-17T10:14:55;101549.09;;;20.71;57.31
75747;BME280;64363;52.198;21.020;2022-10-17T10:20:24;101556.00;;;20.26;58.04
75747;BME280;64363;52.198;21.020;2022-10-17T10:23:15;101568.28;;;20.16;58.40
75747;BME280;64363;52.198;21.020;2022-10-17T10:26:00;101562.56;;;20.05;58.53
75747;BME280;64363;52.198;21.020;2022-10-17T10:28:31;101553.00;;;19.98;58.50
75747;BME280;64363;52.198;21.020;2022-10-17T10:31:00;101559.22;;;20.00;59.11
75747;BME280;64363;52.198;21.020;2022-10-17T10:33:28;101563.69;;;20.01;58.52
75747;BME280;64363;52.198;21.020;2022-10-17T10:36:01;101558.44;;;19.98;59.23
75747;BME280;64363;52.198;21.020;2022-10-17T10:38:31;101560.09;;;20.00;58.68
75747;BME280;64363;52.198;21.020;2022-10-17T10:41:04;101557.44;;;19.99;58.56
75747;BME280;64363;52.198;21.020;2022-10-17T10:43:36;101552.69;;;20.04;58.67
75747;BME280;64363;52.198;21.020;2022-10-17T10:46:15;101548.16;;;20.04;58.35
75747;BME280;64363;52.198;21.020;2022-10-17T10:48:58;101552.13;;;19.97;58.11
75747;BME280;64363;52.198;21.020;2022-10-17T10:51:47;101554.91;;;19.96;58.67
75747;BME280;64363;52.198;21.020;2022-10-17T10:54:34;101550.91;;;20.03;58.47
75747;BME280;64363;52.198;21.020;2022-10-17T10:57:03;101557.63;;;20.13;58.53
75747;BME280;64363;52.198;21.020;2022-10-17T11:04:42;101547.88;;;20.26;57.89
75747;BME280;64363;52.198;21.020;2022-10-17T11:07:14;101547.88;;;20.26;57.65
75747;BME280;64363;52.198;21.020;2022-10-17T11:09:48;101556.97;;;20.25;57.14
75747;BME280;64363;52.198;21.020;2022-10-17T11:12:22;101550.38;;;20.31;60.00
75747;BME280;64363;52.198;21.020;2022-10-17T11:17:35;101547.44;;;20.35;57.67
75747;BME280;64363;52.198;21.020;2022-10-17T11:22:39;101547.44;;;20.35;57.28
75747;BME280;64363;52.198;21.020;2022-10-17T11:27:38;101547.25;;;20.38;57.58
75747;BME280;64363;52.198;21.020;2022-10-17T11:30:05;101547.72;;;20.46;56.60
75747;BME280;64363;52.198;21.020;2022-10-17T11:32:33;101548.69;;;20.45;57.22
75747;BME280;64363;52.198;21.020;2022-10-17T11:35:22;101548.13;;;20.39;57.64
75747;BME280;64363;52.198;21.020;2022-10-17T11:38:07;101545.53;;;20.37;57.76
75747;BME280;64363;52.198;21.020;2022-10-17T11:40:38;101549.19;;;20.36;57.86
75747;BME280;64363;52.198;21.020;2022-10-17T11:43:32;101542.81;;;20.37;57.58
75747;BME280;64363;52.198;21.020;2022-10-17T11:46:04;101540.09;;;20.37;58.10
75747;BME280;64363;52.198;21.020;2022-10-17T11:48:40;101539.94;;;20.40;58.14
75747;BME280;64363;52.198;21.020;2022-10-17T11:51:09;101548.53;;;20.48;57.15
75747;BME280;64363;52.198;21.020;2022-10-17T11:56:38;101546.28;;;20.57;56.25
75747;BME280;64363;52.198;21.020;2022-10-17T12:02:01;101548.97;;;20.57;56.43
75747;BME280;64363;52.198;21.020;2022-10-17T12:04:56;101548.28;;;20.53;56.29
75747;BME280;64363;52.198;21.020;2022-10-17T12:07:43;101549.22;;;20.52;56.20
75747;BME280;64363;52.198;21.020;2022-10-17T12:10:33;101553.81;;;20.67;56.39
75747;BME280;64363;52.198;21.020;2022-10-17T12:15:54;101557.88;;;20.91;55.89
75747;BME280;64363;52.198;21.020;2022-10-17T12:18:23;101545.47;;;21.03;54.80
75747;BME280;64363;52.198;21.020;2022-10-17T12:20:58;101553.94;;;21.14;54.58
75747;BME280;64363;52.198;21.020;2022-10-17T12:23:29;101548.31;;;21.33;54.85
75747;BME280;64363;52.198;21.020;2022-10-17T12:25:58;101546.91;;;21.57;54.25
75747;BME280;64363;52.198;21.020;2022-10-17T12:30:58;101533.38;;;21.71;53.48
75747;BME280;64363;52.198;21.020;2022-10-17T12:33:36;101536.00;;;21.73;54.77
75747;BME280;64363;52.198;21.020;2022-10-17T12:52:50;101516.41;;;21.22;54.83
75747;BME280;64363;52.198;21.020;2022-10-17T12:55:16;101515.06;;;21.29;54.58
75747;BME280;64363;52.198;21.020;2022-10-17T12:57:56;101508.94;;;21.41;55.11
75747;BME280;64363;52.198;21.020;2022-10-17T13:03:31;101514.34;;;21.41;54.55
75747;BME280;64363;52.198;21.020;2022-10-17T13:06:01;101516.88;;;21.44;54.60
75747;BME280;64363;52.198;21.020;2022-10-17T13:08:33;101519.41;;;21.47;53.80
75747;BME280;64363;52.198;21.020;2022-10-17T13:11:01;101516.16;;;21.57;53.47
75747;BME280;64363;52.198;21.020;2022-10-17T13:16:06;101516.91;;;21.74;53.10
75747;BME280;64363;52.198;21.020;2022-10-17T13:18:33;101511.97;;;21.81;53.15
75747;BME280;64363;52.198;21.020;2022-10-17T13:21:05;101507.31;;;21.83;53.42
75747;BME280;64363;52.198;21.020;2022-10-17T13:23:34;101506.91;;;21.75;53.12
75747;BME280;64363;52.198;21.020;2022-10-17T13:26:27;101505.75;;;21.79;53.40
75747;BME280;64363;52.198;21.020;2022-10-17T13:29:12;101509.16;;;21.98;53.02
75747;BME280;64363;52.198;21.020;2022-10-17T13:31:41;101503.50;;;22.45;52.12
75747;BME280;64363;52.198;21.020;2022-10-17T13:34:18;101504.88;;;22.95;49.90
75747;BME280;64363;52.198;21.020;2022-10-17T13:36:52;101497.75;;;23.33;48.75
75747;BME280;64363;52.198;21.020;2022-10-17T13:39:22;101496.03;;;23.59;48.76
75747;BME280;64363;52.198;21.020;2022-10-17T13:41:50;101492.97;;;23.37;48.64
75747;BME280;64363;52.198;21.020;2022-10-17T13:44:20;101486.28;;;23.01;49.99
75747;BME280;64363;52.198;21.020;2022-10-17T13:46:48;101488.41;;;22.96;51.01
75747;BME280;64363;52.198;21.020;2022-10-17T13:49:38;101481.44;;;22.92;50.76
75747;BME280;64363;52.198;21.020;2022-10-17T13:52:12;101480.84;;;23.01;50.94
75747;BME280;64363;52.198;21.020;2022-10-17T13:54:44;101486.88;;;22.92;49.74
75747;BME280;64363;52.198;21.020;2022-10-17T13:57:21;101488.22;;;22.99;50.21
75747;BME280;64363;52.198;21.020;2022-10-17T13:59:50;101486.06;;;23.04;49.64
75747;BME280;64363;52.198;21.020;2022-10-17T14:02:23;101485.94;;;23.20;49.58
75747;BME280;64363;52.198;21.020;2022-10-17T14:07:50;101480.78;;;23.15;49.93
75747;BME280;64363;52.198;21.020;2022-10-17T14:10:25;101477.59;;;22.82;51.12
75747;BME280;64363;52.198;21.020;2022-10-17T14:12:53;101473.31;;;22.50;51.68
75747;BME280;64363;52.198;21.020;2022-10-17T14:15:22;101478.22;;;22.15;52.30
75747;BME280;64363;52.198;21.020;2022-10-17T14:17:55;101468.00;;;21.90;53.50
75747;BME280;64363;52.198;21.020;2022-10-17T14:20:22;101472.47;;;21.61;54.31
75747;BME280;64363;52.198;21.020;2022-10-17T14:22:49;101468.66;;;21.50;55.17
75747;BME280;64363;52.198;21.020;2022-10-17T14:25:36;101473.81;;;21.38;54.97
75747;BME280;64363;52.198;21.020;2022-10-17T14:28:13;101469.41;;;21.22;55.83
75747;BME280;64363;52.198;21.020;2022-10-17T14:30:45;101468.16;;;21.12;56.59
75747;BME280;64363;52.198;21.020;2022-10-17T14:33:24;101470.59;;;21.00;56.63
75747;BME280;64363;52.198;21.020;2022-10-17T14:35:56;101462.97;;;20.91;56.87
75747;BME280;64363;52.198;21.020;2022-10-17T14:38:23;101472.34;;;20.86;57.11